Time;durP1;ratioP1;P1;durP2;ratioP2;P2;SDS_P1;SDS_P2;PMS_P1;PMS_P2;Temp;Humidity;BMP_temperature;BMP_pressure;BME280_temperature;BME280_humidity;BME280_pressure;Samples;Min_cycle;Max_cycle;Signal;HPM_P1;HPM_P2
2023/02/05 00:00:58;;;;;;;27.47;13.67;;;;;;;;;;5073894;28;20461;-49
2023/02/05 00:03:24;;;;;;;26.27;15.30;;;;;;;;;;5073847;28;20437;-48
2023/02/05 00:05:50;;;;;;;32.40;14.90;;;;;;;;;;5073797;28;20399;-49
2023/02/05 00:08:16;;;;;;;36.27;15.00;;;;;;;;;;5073086;28;20910;-48
2023/02/05 00:10:42;;;;;;;28.50;15.70;;;;;;;;;;5073559;28;20502;-47
2023/02/05 00:13:08;;;;;;;38.63;16.87;;;;;;;;;;5091774;28;20439;-47
2023/02/05 00:15:35;;;;;;;32.50;14.80;;;;;;;;;;5088226;28;20430;-47
2023/02/05 00:18:01;;;;;;;21.67;13.60;;;;;;;;;;5095853;28;20440;-48
2023/02/05 00:20:27;;;;;;;33.00;15.27;;;;;;;;;;5078581;28;20465;-48
2023/02/05 00:22:53;;;;;;;29.33;13.83;;;;;;;;;;5089516;28;20425;-46
2023/02/05 00:25:19;;;;;;;36.67;13.97;;;;;;;;;;5092926;28;20408;-48
2023/02/05 00:27:45;;;;;;;28.27;14.23;;;;;;;;;;5090638;28;20496;-49
2023/02/05 00:30:11;;;;;;;32.33;13.90;;;;;;;;;;5087987;28;20453;-47
2023/02/05 00:32:37;;;;;;;26.10;14.20;;;;;;;;;;5093440;28;20943;-48
2023/02/05 00:35:03;;;;;;;35.63;14.47;;;;;;;;;;5093274;28;20478;-46
2023/02/05 00:37:29;;;;;;;24.27;13.33;;;;;;;;;;5091150;28;20420;-46
2023/02/05 00:39:55;;;;;;;37.03;13.77;;;;;;;;;;5089724;28;20414;-50
2023/02/05 00:42:21;;;;;;;35.47;13.07;;;;;;;;;;5090951;28;20429;-48
2023/02/05 00:44:47;;;;;;;34.73;14.60;;;;;;;;;;5090561;28;20437;-48
2023/02/05 00:47:13;;;;;;;37.97;14.07;;;;;;;;;;5085924;28;20413;-48
2023/02/05 00:49:39;;;;;;;32.17;13.70;;;;;;;;;;5093262;28;20904;-49
2023/02/05 00:52:05;;;;;;;24.13;13.00;;;;;;;;;;5092715;28;20425;-49
2023/02/05 00:54:31;;;;;;;29.00;12.87;;;;;;;;;;5089592;28;20471;-46
2023/02/05 00:56:57;;;;;;;26.70;13.70;;;;;;;;;;5087765;28;20498;-47
2023/02/05 00:59:23;;;;;;;32.33;14.40;;;;;;;;;;5088725;28;20900;-46
2023/02/05 01:01:50;;;;;;;30.40;14.00;;;;;;;;;;5090162;28;20522;-48
2023/02/05 01:04:16;;;;;;;27.67;13.57;;;;;;;;;;5083340;28;20409;-46
2023/02/05 01:06:42;;;;;;;33.30;13.30;;;;;;;;;;5097655;28;20419;-47
2023/02/05 01:09:07;;;;;;;33.57;13.67;;;;;;;;;;5084420;28;20448;-47
2023/02/05 01:11:34;;;;;;;37.00;14.93;;;;;;;;;;5087382;28;20614;-49
2023/02/05 01:14:00;;;;;;;37.33;14.60;;;;;;;;;;5085515;28;20972;-48
2023/02/05 01:16:26;;;;;;;28.97;14.33;;;;;;;;;;5092636;28;20445;-49
2023/02/05 01:18:55;;;;;;;40.40;13.70;;;;;;;;;;5089755;28;20414;-48
2023/02/05 01:21:23;;;;;;;39.23;16.87;;;;;;;;;;5091747;28;20435;-46
2023/02/05 01:23:49;;;;;;;38.10;16.00;;;;;;;;;;5090015;28;20409;-46
2023/02/05 01:26:15;;;;;;;29.10;15.30;;;;;;;;;;5092763;28;20419;-48
2023/02/05 01:28:40;;;;;;;30.50;14.80;;;;;;;;;;5085648;28;20424;-48
2023/02/05 01:31:06;;;;;;;46.17;16.20;;;;;;;;;;5092205;28;20413;-47
2023/02/05 01:33:32;;;;;;;27.90;13.60;;;;;;;;;;5092422;28;20459;-47
2023/02/05 01:35:58;;;;;;;26.20;13.10;;;;;;;;;;5088432;28;20508;-48
2023/02/05 01:38:24;;;;;;;30.07;14.27;;;;;;;;;;5090021;28;20405;-48
2023/02/05 01:40:50;;;;;;;29.97;14.37;;;;;;;;;;5089877;28;20455;-47
2023/02/05 01:43:17;;;;;;;34.20;14.77;;;;;;;;;;5085243;28;20493;-46
2023/02/05 01:46:02;;;;;;;32.73;14.80;;;;;;;;;;5092096;28;20420;-48
2023/02/05 01:48:32;;;;;;;40.33;14.50;;;;;;;;;;5090173;28;20425;-48
2023/02/05 01:51:01;;;;;;;30.53;13.73;;;;;;;;;;5088403;28;20410;-49
2023/02/05 01:53:31;;;;;;;31.70;13.30;;;;;;;;;;5091828;28;20511;-48
2023/02/05 01:55:59;;;;;;;27.43;13.23;;;;;;;;;;5093590;28;20416;-49
2023/02/05 01:58:26;;;;;;;31.93;14.47;;;;;;;;;;5091990;28;20416;-48
2023/02/05 02:00:52;;;;;;;33.67;12.47;;;;;;;;;;5089547;28;20818;-48
2023/02/05 02:03:18;;;;;;;38.13;13.20;;;;;;;;;;5091351;28;20437;-46
2023/02/05 02:05:44;;;;;;;26.57;12.63;;;;;;;;;;5087890;28;20405;-46
2023/02/05 02:08:11;;;;;;;30.63;13.60;;;;;;;;;;5086112;28;20446;-46
2023/02/05 02:10:37;;;;;;;22.10;12.43;;;;;;;;;;5084862;28;20860;-49
2023/02/05 02:13:04;;;;;;;28.30;11.67;;;;;;;;;;5091580;28;20932;-49
2023/02/05 02:15:29;;;;;;;22.80;12.53;;;;;;;;;;5089684;28;20853;-48
2023/02/05 02:18:24;;;;;;;39.57;13.33;;;;;;;;;;5088655;28;20437;-48
2023/02/05 02:20:45;;;;;;;33.47;14.73;;;;;;;;;;5086563;28;20419;-48
2023/02/05 02:23:30;;;;;;;29.10;14.00;;;;;;;;;;5089318;28;20440;-47
2023/02/05 02:25:56;;;;;;;29.07;12.80;;;;;;;;;;5089783;28;20447;-48
2023/02/05 02:28:25;;;;;;;26.33;14.27;;;;;;;;;;5091754;28;20778;-48
2023/02/05 02:30:51;;;;;;;24.43;12.33;;;;;;;;;;5091411;28;20424;-49
2023/02/05 02:33:20;;;;;;;34.23;13.17;;;;;;;;;;5095651;28;20433;-48
2023/02/05 02:35:48;;;;;;;37.67;12.60;;;;;;;;;;5090608;28;20421;-46
2023/02/05 02:38:29;;;;;;;25.17;11.60;;;;;;;;;;5088951;28;20408;-46
2023/02/05 02:41:00;;;;;;;31.70;12.53;;;;;;;;;;5087270;28;20525;-49
2023/02/05 02:43:28;;;;;;;26.10;11.50;;;;;;;;;;5095626;28;20456;-48
2023/02/05 02:45:58;;;;;;;29.63;12.53;;;;;;;;;;5092147;28;20453;-46
2023/02/05 02:48:25;;;;;;;19.30;11.50;;;;;;;;;;5093229;28;20398;-49
2023/02/05 02:50:52;;;;;;;26.53;10.33;;;;;;;;;;5092900;28;20870;-48
2023/02/05 02:53:24;;;;;;;29.47;11.00;;;;;;;;;;5095245;28;20467;-48
2023/02/05 02:55:52;;;;;;;23.53;12.33;;;;;;;;;;5090557;28;20408;-50
2023/02/05 02:58:22;;;;;;;19.77;9.67;;;;;;;;;;5095700;28;20410;-47
2023/02/05 03:00:49;;;;;;;24.33;11.00;;;;;;;;;;5092090;28;20828;-48
2023/02/05 03:03:16;;;;;;;31.60;12.03;;;;;;;;;;5090278;28;20795;-48
2023/02/05 03:05:43;;;;;;;30.80;12.10;;;;;;;;;;5088798;28;20443;-45
2023/02/05 03:08:30;;;;;;;25.00;11.73;;;;;;;;;;5091678;28;20405;-49
2023/02/05 03:11:03;;;;;;;29.53;11.43;;;;;;;;;;5093362;28;20405;-48
2023/02/05 03:13:31;;;;;;;27.60;10.80;;;;;;;;;;5093765;28;20420;-49
2023/02/05 03:15:56;;;;;;;25.83;10.83;;;;;;;;;;5093404;28;20428;-48
2023/02/05 03:18:23;;;;;;;30.87;10.87;;;;;;;;;;5090187;28;20462;-48
2023/02/05 03:20:51;;;;;;;24.30;12.47;;;;;;;;;;5094867;28;20418;-49
2023/02/05 03:23:17;;;;;;;40.03;12.87;;;;;;;;;;5094939;28;20830;-49
2023/02/05 03:25:43;;;;;;;25.90;11.70;;;;;;;;;;5094652;28;20844;-45
2023/02/05 03:28:10;;;;;;;26.50;11.10;;;;;;;;;;5094809;28;20411;-49
2023/02/05 03:30:40;;;;;;;32.80;11.60;;;;;;;;;;5094418;28;20913;-47
2023/02/05 03:33:12;;;;;;;20.57;11.60;;;;;;;;;;5094529;28;20523;-47
2023/02/05 03:35:44;;;;;;;47.40;12.47;;;;;;;;;;5094630;28;20458;-47
2023/02/05 03:38:24;;;;;;;23.37;10.87;;;;;;;;;;5074680;28;20401;-49
2023/02/05 03:41:19;;;;;;;24.60;10.83;;;;;;;;;;5074152;28;20410;-50
2023/02/05 03:43:51;;;;;;;31.40;12.40;;;;;;;;;;5072856;28;20418;-49
2023/02/05 03:46:19;;;;;;;34.00;13.80;;;;;;;;;;5074589;28;20397;-49
2023/02/05 03:48:51;;;;;;;29.20;11.37;;;;;;;;;;5074431;28;20405;-47
2023/02/05 03:51:23;;;;;;;28.80;12.43;;;;;;;;;;5074032;28;20444;-47
2023/02/05 03:53:52;;;;;;;26.13;13.07;;;;;;;;;;5074330;28;20449;-49
2023/02/05 03:56:21;;;;;;;30.70;11.50;;;;;;;;;;5104412;28;20408;-47
2023/02/05 03:58:49;;;;;;;38.60;12.60;;;;;;;;;;5115174;28;20928;-50
2023/02/05 04:01:15;;;;;;;28.87;13.10;;;;;;;;;;5114742;28;20400;-48
2023/02/05 04:03:41;;;;;;;40.47;13.57;;;;;;;;;;5114625;28;20883;-49
2023/02/05 04:06:07;;;;;;;34.33;12.03;;;;;;;;;;5114618;28;20802;-48
2023/02/05 04:08:33;;;;;;;29.10;13.40;;;;;;;;;;5114668;28;20422;-49
2023/02/05 04:10:59;;;;;;;30.77;12.53;;;;;;;;;;5114441;28;20408;-47
2023/02/05 04:13:25;;;;;;;37.67;14.47;;;;;;;;;;5114386;28;20424;-48
2023/02/05 04:15:51;;;;;;;38.70;14.00;;;;;;;;;;5114285;28;20424;-48
2023/02/05 04:18:17;;;;;;;30.40;15.37;;;;;;;;;;5114277;28;20411;-46
2023/02/05 04:20:43;;;;;;;36.30;13.93;;;;;;;;;;5114399;28;20401;-47
2023/02/05 04:23:10;;;;;;;36.90;15.33;;;;;;;;;;5114466;28;20428;-47
2023/02/05 04:25:36;;;;;;;45.17;16.10;;;;;;;;;;5114238;28;20764;-47
2023/02/05 04:28:02;;;;;;;32.57;14.37;;;;;;;;;;5114389;28;20772;-46
2023/02/05 04:30:28;;;;;;;38.30;17.13;;;;;;;;;;5114904;28;20464;-47
2023/02/05 04:32:54;;;;;;;33.90;15.63;;;;;;;;;;5113932;28;20419;-43
2023/02/05 04:35:20;;;;;;;46.57;16.30;;;;;;;;;;5114288;28;20514;-43
2023/02/05 04:37:46;;;;;;;39.57;16.63;;;;;;;;;;5113960;28;20399;-42
2023/02/05 04:40:12;;;;;;;47.30;16.10;;;;;;;;;;5113966;28;20396;-43
2023/02/05 04:42:38;;;;;;;38.10;17.00;;;;;;;;;;5114209;28;20416;-43
2023/02/05 04:45:04;;;;;;;43.10;16.10;;;;;;;;;;5113968;28;20429;-43
2023/02/05 04:47:30;;;;;;;37.97;18.40;;;;;;;;;;5113629;28;20822;-43
2023/02/05 04:49:56;;;;;;;37.33;17.13;;;;;;;;;;5113883;28;20492;-43
2023/02/05 04:52:22;;;;;;;40.13;16.23;;;;;;;;;;5113665;28;20457;-43
2023/02/05 04:54:48;;;;;;;43.17;17.23;;;;;;;;;;5110967;28;20456;-42
2023/02/05 04:57:14;;;;;;;36.80;18.10;;;;;;;;;;5093240;28;20461;-43
2023/02/05 04:59:40;;;;;;;55.27;18.43;;;;;;;;;;5093324;28;20496;-45
2023/02/05 05:02:06;;;;;;;48.50;15.90;;;;;;;;;;5092931;28;20488;-46
2023/02/05 05:04:32;;;;;;;40.03;16.33;;;;;;;;;;5093219;28;20912;-42
2023/02/05 05:06:58;;;;;;;35.20;15.90;;;;;;;;;;5093074;28;20423;-43
2023/02/05 05:09:27;;;;;;;30.83;15.13;;;;;;;;;;5093081;28;20404;-43
2023/02/05 05:11:53;;;;;;;37.93;15.43;;;;;;;;;;5092884;28;20523;-47
2023/02/05 05:14:19;;;;;;;48.70;17.13;;;;;;;;;;5092888;28;20463;-44
2023/02/05 05:16:45;;;;;;;39.47;15.07;;;;;;;;;;5092711;28;20409;-45
2023/02/05 05:19:12;;;;;;;30.10;15.50;;;;;;;;;;5092929;28;20479;-47
2023/02/05 05:21:38;;;;;;;36.93;16.93;;;;;;;;;;5092424;28;21152;-47
2023/02/05 05:24:04;;;;;;;33.03;15.00;;;;;;;;;;5092860;28;20428;-43
2023/02/05 05:26:30;;;;;;;37.50;16.50;;;;;;;;;;5092654;28;20420;-43
2023/02/05 05:28:56;;;;;;;39.17;17.47;;;;;;;;;;5092750;28;20402;-43
2023/02/05 05:31:23;;;;;;;37.97;16.40;;;;;;;;;;5092474;28;20416;-43
2023/02/05 05:33:49;;;;;;;39.90;16.30;;;;;;;;;;5092450;28;20451;-45
2023/02/05 05:36:15;;;;;;;36.83;16.93;;;;;;;;;;5090190;28;20419;-43
2023/02/05 05:38:41;;;;;;;35.67;17.20;;;;;;;;;;5088764;28;20423;-44
2023/02/05 05:43:54;;;;;;;42.00;18.37;;;;;;;;;;5092303;28;20918;-43
2023/02/05 05:46:22;;;;;;;39.30;18.10;;;;;;;;;;5091502;28;20917;-43
2023/02/05 05:48:49;;;;;;;43.50;20.07;;;;;;;;;;5090610;28;20413;-43
2023/02/05 05:51:15;;;;;;;44.97;18.07;;;;;;;;;;5092130;28;20413;-43
2023/02/05 05:53:41;;;;;;;46.73;19.70;;;;;;;;;;5088563;28;21016;-43
2023/02/05 05:56:07;;;;;;;38.23;16.93;;;;;;;;;;5091874;28;20404;-43
2023/02/05 05:58:33;;;;;;;46.00;18.00;;;;;;;;;;5085393;28;20437;-43
2023/02/05 06:00:59;;;;;;;44.60;20.07;;;;;;;;;;5091717;28;20463;-43
2023/02/05 06:03:25;;;;;;;38.53;18.93;;;;;;;;;;5090157;28;20429;-45
2023/02/05 06:05:51;;;;;;;35.33;17.27;;;;;;;;;;5087819;28;20421;-46
2023/02/05 06:08:17;;;;;;;41.23;18.47;;;;;;;;;;5090359;28;20413;-47
2023/02/05 06:10:43;;;;;;;40.70;19.13;;;;;;;;;;5088291;28;20486;-44
2023/02/05 06:13:09;;;;;;;42.67;19.90;;;;;;;;;;5085008;28;20427;-43
2023/02/05 06:15:35;;;;;;;52.60;18.87;;;;;;;;;;5082999;28;20482;-43
2023/02/05 06:18:01;;;;;;;48.07;19.97;;;;;;;;;;5091572;28;20907;-43
2023/02/05 06:20:27;;;;;;;45.83;22.80;;;;;;;;;;5088505;28;20413;-43
2023/02/05 06:22:53;;;;;;;45.73;19.93;;;;;;;;;;5086573;28;20533;-43
2023/02/05 06:25:19;;;;;;;43.80;19.73;;;;;;;;;;5088337;28;20988;-43
2023/02/05 06:27:45;;;;;;;48.93;20.40;;;;;;;;;;5088103;28;20958;-43
2023/02/05 06:30:11;;;;;;;45.77;21.70;;;;;;;;;;5083541;28;20404;-43
2023/02/05 06:32:37;;;;;;;56.13;24.20;;;;;;;;;;5089830;28;20441;-43
2023/02/05 06:35:03;;;;;;;47.50;20.97;;;;;;;;;;5088143;28;20476;-44
2023/02/05 06:37:30;;;;;;;46.03;21.53;;;;;;;;;;5086436;28;20508;-45
2023/02/05 06:39:56;;;;;;;48.33;23.27;;;;;;;;;;5084807;28;20412;-44
2023/02/05 06:42:22;;;;;;;47.50;23.40;;;;;;;;;;5091487;28;20461;-43
2023/02/05 06:44:48;;;;;;;44.77;21.57;;;;;;;;;;5091213;28;20412;-43
2023/02/05 06:47:14;;;;;;;47.47;22.37;;;;;;;;;;5091346;28;20404;-44
2023/02/05 06:49:40;;;;;;;48.70;21.30;;;;;;;;;;5088195;28;20466;-46
2023/02/05 06:52:06;;;;;;;46.90;22.87;;;;;;;;;;5086281;28;20473;-43
2023/02/05 06:54:32;;;;;;;64.60;22.47;;;;;;;;;;5085142;28;20528;-45
2023/02/05 06:56:58;;;;;;;49.00;22.43;;;;;;;;;;5083016;28;20413;-43
2023/02/05 06:59:24;;;;;;;58.03;24.83;;;;;;;;;;5091240;28;20407;-43
2023/02/05 07:01:50;;;;;;;50.73;24.93;;;;;;;;;;5088064;28;20435;-43
2023/02/05 07:04:16;;;;;;;47.10;23.87;;;;;;;;;;5090231;28;20780;-43
2023/02/05 07:06:42;;;;;;;52.83;24.57;;;;;;;;;;5087712;28;20409;-43
2023/02/05 07:09:08;;;;;;;53.53;26.93;;;;;;;;;;5084707;28;20410;-43
2023/02/05 07:11:34;;;;;;;61.40;25.83;;;;;;;;;;5082372;28;20412;-48
2023/02/05 07:14:01;;;;;;;51.33;24.60;;;;;;;;;;5090439;28;20461;-46
2023/02/05 07:16:27;;;;;;;65.87;28.70;;;;;;;;;;5088503;28;20790;-43
2023/02/05 07:18:53;;;;;;;77.00;29.87;;;;;;;;;;5089558;28;20409;-43
2023/02/05 07:21:19;;;;;;;70.30;31.33;;;;;;;;;;5091000;28;20793;-44
2023/02/05 07:23:45;;;;;;;66.70;29.10;;;;;;;;;;5091346;28;20526;-46
2023/02/05 07:26:12;;;;;;;64.33;29.30;;;;;;;;;;5087036;28;20510;-47
2023/02/05 07:28:38;;;;;;;71.60;30.90;;;;;;;;;;5094738;28;20413;-43
2023/02/05 07:31:05;;;;;;;70.27;32.00;;;;;;;;;;5094571;28;20408;-43
2023/02/05 07:33:31;;;;;;;76.77;30.57;;;;;;;;;;5089845;28;20440;-42
2023/02/05 07:35:57;;;;;;;73.63;31.40;;;;;;;;;;5088062;28;20416;-43
2023/02/05 07:38:23;;;;;;;63.53;28.83;;;;;;;;;;5094237;28;20407;-43
2023/02/05 07:40:50;;;;;;;74.33;30.30;;;;;;;;;;5094661;28;20394;-44
2023/02/05 07:43:16;;;;;;;59.73;27.47;;;;;;;;;;5094512;28;20926;-43
2023/02/05 07:45:42;;;;;;;64.53;27.00;;;;;;;;;;5094492;28;20405;-52
2023/02/05 07:48:08;;;;;;;59.27;28.47;;;;;;;;;;5094426;28;20491;-42
2023/02/05 07:50:34;;;;;;;60.10;29.97;;;;;;;;;;5094484;28;20455;-43
2023/02/05 07:53:00;;;;;;;59.33;26.77;;;;;;;;;;5094429;28;20481;-43
2023/02/05 07:55:26;;;;;;;51.87;25.00;;;;;;;;;;5094477;28;20453;-43
2023/02/05 07:57:52;;;;;;;42.80;22.70;;;;;;;;;;5094326;28;20499;-43
2023/02/05 08:00:18;;;;;;;52.53;26.87;;;;;;;;;;5094328;28;20401;-43
2023/02/05 08:02:44;;;;;;;51.30;24.90;;;;;;;;;;5094346;28;20423;-44
2023/02/05 08:05:10;;;;;;;48.27;24.60;;;;;;;;;;5094227;28;20807;-45
2023/02/05 08:07:36;;;;;;;46.27;25.20;;;;;;;;;;5094753;28;20747;-46
2023/02/05 08:10:02;;;;;;;47.13;22.80;;;;;;;;;;5096050;28;20405;-45
2023/02/05 08:12:28;;;;;;;54.53;24.90;;;;;;;;;;5094838;28;20477;-45
2023/02/05 08:14:54;;;;;;;48.70;23.20;;;;;;;;;;5094261;28;20462;-45
2023/02/05 08:17:20;;;;;;;33.03;17.47;;;;;;;;;;5093980;28;20606;-45
2023/02/05 08:19:46;;;;;;;36.27;19.83;;;;;;;;;;5093829;28;20397;-45
2023/02/05 08:22:12;;;;;;;44.50;23.40;;;;;;;;;;5095084;28;20426;-43
2023/02/05 08:24:38;;;;;;;38.30;22.20;;;;;;;;;;5093864;28;20497;-42
2023/02/05 08:27:04;;;;;;;36.00;19.57;;;;;;;;;;5093632;28;20396;-43
2023/02/05 08:29:30;;;;;;;44.57;22.10;;;;;;;;;;5093302;28;20407;-44
2023/02/05 08:31:56;;;;;;;37.00;19.77;;;;;;;;;;5093686;28;20420;-44
2023/02/05 08:34:22;;;;;;;36.30;20.87;;;;;;;;;;5093931;28;20461;-45
2023/02/05 08:36:48;;;;;;;42.80;21.47;;;;;;;;;;5093467;28;20952;-45
2023/02/05 08:39:14;;;;;;;40.10;20.90;;;;;;;;;;5093539;28;20477;-45
2023/02/05 08:41:39;;;;;;;37.93;22.47;;;;;;;;;;5093459;28;20490;-45
2023/02/05 08:44:06;;;;;;;38.47;23.67;;;;;;;;;;5091414;28;20420;-45
2023/02/05 08:46:32;;;;;;;29.77;18.93;;;;;;;;;;5090679;28;20521;-45
2023/02/05 08:48:58;;;;;;;34.77;17.60;;;;;;;;;;5091578;28;20436;-45
2023/02/05 08:51:24;;;;;;;25.95;16.17;;;;;;;;;;5092911;28;20786;-45
2023/02/05 08:53:51;;;;;;;23.10;14.40;;;;;;;;;;5092514;28;20186;-45
2023/02/05 08:56:17;;;;;;;27.43;12.80;;;;;;;;;;5093046;28;20499;-45
2023/02/05 08:58:43;;;;;;;24.33;12.33;;;;;;;;;;5092977;28;20491;-45
2023/02/05 09:01:10;;;;;;;14.43;9.13;;;;;;;;;;5086152;28;20823;-44
2023/02/05 09:03:36;;;;;;;11.10;7.17;;;;;;;;;;5092899;28;20497;-46
2023/02/05 09:06:05;;;;;;;11.37;7.87;;;;;;;;;;5086724;28;20451;-45
2023/02/05 09:08:31;;;;;;;10.07;6.57;;;;;;;;;;5093076;28;20404;-45
2023/02/05 09:10:57;;;;;;;8.17;5.40;;;;;;;;;;5092730;28;20176;-45
2023/02/05 09:13:23;;;;;;;9.90;6.53;;;;;;;;;;5092725;28;20448;-45
2023/02/05 09:15:49;;;;;;;11.70;5.47;;;;;;;;;;5090132;28;20551;-45
2023/02/05 09:18:16;;;;;;;7.33;5.17;;;;;;;;;;5090851;28;20499;-44
2023/02/05 09:20:43;;;;;;;5.35;4.80;;;;;;;;;;5096294;28;20856;-45
2023/02/05 09:23:10;;;;;;;5.05;4.35;;;;;;;;;;5077013;28;20227;-44
2023/02/05 09:25:36;;;;;;;4.50;3.58;;;;;;;;;;5092430;28;20675;-45
2023/02/05 09:28:03;;;;;;;8.57;4.17;;;;;;;;;;5089879;28;20221;-44
2023/02/05 09:30:29;;;;;;;5.45;4.15;;;;;;;;;;5090230;28;20431;-45
2023/02/05 09:32:55;;;;;;;4.20;3.37;;;;;;;;;;5090648;28;20233;-45
2023/02/05 09:35:20;;;;;;;5.33;3.93;;;;;;;;;;5086600;28;20466;-44
2023/02/05 09:37:46;;;;;;;5.20;4.20;;;;;;;;;;5084824;28;20407;-44
2023/02/05 09:40:19;;;;;;;9.43;4.00;;;;;;;;;;5091156;28;20402;-44
2023/02/05 09:42:52;;;;;;;7.00;3.60;;;;;;;;;;5092002;28;20843;-45
2023/02/05 09:45:31;;;;;;;3.83;3.40;;;;;;;;;;5088174;28;20504;-45
2023/02/05 09:47:57;;;;;;;9.97;4.90;;;;;;;;;;5086267;28;20420;-45
2023/02/05 09:50:30;;;;;;;4.93;4.43;;;;;;;;;;5087234;28;20421;-45
2023/02/05 09:52:59;;;;;;;9.83;5.33;;;;;;;;;;5090368;28;20837;-45
2023/02/05 09:55:30;;;;;;;6.60;5.90;;;;;;;;;;5093840;28;20450;-45
2023/02/05 10:00:44;;;;;;;7.37;5.90;;;;;;;;;;5722094;22;20535;-46
2023/02/05 10:03:37;;;;;;;8.00;4.53;;;;;;;;;;5064333;28;20435;-41
2023/02/05 10:06:16;;;;;;;6.32;4.90;;;;;;;;;;5068961;28;20817;-43
2023/02/05 10:08:51;;;;;;;5.93;4.80;;;;;;;;;;5020897;28;20167;-47
2023/02/05 10:11:26;;;;;;;4.05;3.65;;;;;;;;;;5051038;28;20471;-47
2023/02/05 10:14:09;;;;;;;5.30;4.78;;;;;;;;;;5051878;28;20217;-47
2023/02/05 10:16:38;;;;;;;3.87;3.40;;;;;;;;;;5051595;28;20224;-47
2023/02/05 10:19:14;;;;;;;5.40;4.20;;;;;;;;;;5059065;28;20396;-44
2023/02/05 10:21:40;;;;;;;6.80;3.93;;;;;;;;;;5071321;28;20649;-44
2023/02/05 10:24:06;;;;;;;4.93;3.60;;;;;;;;;;5063220;28;20421;-43
2023/02/05 10:26:53;;;;;;;7.30;4.50;;;;;;;;;;5063022;28;20408;-44
2023/02/05 10:29:19;;;;;;;5.00;4.50;;;;;;;;;;5065819;28;20943;-44
2023/02/05 10:32:03;;;;;;;5.73;4.20;;;;;;;;;;5064185;28;20194;-44
2023/02/05 10:34:47;;;;;;;4.90;3.13;;;;;;;;;;5059739;28;20465;-44
2023/02/05 10:37:17;;;;;;;5.75;4.03;;;;;;;;;;5068665;28;20769;-44
2023/02/05 10:39:43;;;;;;;6.60;4.07;;;;;;;;;;5070446;28;20667;-44
2023/02/05 10:42:09;;;;;;;4.18;3.72;;;;;;;;;;5062774;28;20170;-44
2023/02/05 10:44:42;;;;;;;6.47;3.27;;;;;;;;;;5071648;28;20174;-41
2023/02/05 10:47:27;;;;;;;3.00;2.77;;;;;;;;;;5071963;28;20900;-42
2023/02/05 10:50:00;;;;;;;7.32;2.35;;;;;;;;;;5075035;28;20533;-42
2023/02/05 10:52:26;;;;;;;5.43;3.00;;;;;;;;;;5073735;28;20178;-44
2023/02/05 10:54:52;;;;;;;4.73;2.30;;;;;;;;;;5075320;28;20199;-45
2023/02/05 10:57:19;;;;;;;4.60;2.67;;;;;;;;;;5075232;28;20401;-41
2023/02/05 10:59:56;;;;;;;3.60;2.33;;;;;;;;;;5074482;28;20432;-43
2023/02/05 11:02:32;;;;;;;2.55;2.17;;;;;;;;;;5074804;28;20637;-41
2023/02/05 11:05:02;;;;;;;2.75;2.55;;;;;;;;;;5074955;28;20183;-42
2023/02/05 11:07:32;;;;;;;4.00;2.23;;;;;;;;;;5074027;28;20640;-41
2023/02/05 11:10:18;;;;;;;2.05;1.92;;;;;;;;;;5073839;28;20431;-41
2023/02/05 11:12:45;;;;;;;2.20;2.00;;;;;;;;;;5074286;28;20170;-41
2023/02/05 11:15:19;;;;;;;2.28;2.08;;;;;;;;;;5073995;28;20458;-42
2023/02/05 11:17:49;;;;;;;2.42;2.22;;;;;;;;;;5073674;28;20634;-43
2023/02/05 11:20:15;;;;;;;2.20;2.00;;;;;;;;;;5071367;28;20191;-46
2023/02/05 11:22:41;;;;;;;2.97;2.40;;;;;;;;;;5065368;28;20178;-46
2023/02/05 11:25:07;;;;;;;5.73;2.73;;;;;;;;;;5055773;28;20475;-45
2023/02/05 11:27:34;;;;;;;2.60;2.40;;;;;;;;;;5073970;28;20416;-45
2023/02/05 11:30:19;;;;;;;3.17;2.40;;;;;;;;;;5072866;28;20440;-45
2023/02/05 11:32:45;;;;;;;6.95;2.92;;;;;;;;;;5065824;28;20718;-45
2023/02/05 11:35:22;;;;;;;6.87;3.10;;;;;;;;;;5072784;28;20210;-46
2023/02/05 11:37:50;;;;;;;10.20;2.70;;;;;;;;;;5073773;28;20408;-45
2023/02/05 11:40:24;;;;;;;3.00;2.80;;;;;;;;;;5072200;28;20552;-45
2023/02/05 11:42:57;;;;;;;3.40;3.00;;;;;;;;;;5073352;28;20443;-44
2023/02/05 11:45:24;;;;;;;3.00;2.80;;;;;;;;;;5073153;28;20783;-47
2023/02/05 11:47:50;;;;;;;3.80;3.07;;;;;;;;;;5073115;28;20163;-47
2023/02/05 11:50:23;;;;;;;3.23;3.00;;;;;;;;;;5072126;28;20501;-44
2023/02/05 11:52:49;;;;;;;7.68;4.15;;;;;;;;;;5074002;28;20405;-45
2023/02/05 11:55:28;;;;;;;5.10;3.83;;;;;;;;;;5073790;28;20203;-47
2023/02/05 11:57:58;;;;;;;3.40;3.20;;;;;;;;;;5073971;28;20412;-45
2023/02/05 12:00:25;;;;;;;8.80;4.20;;;;;;;;;;5072972;28;20424;-46
2023/02/05 12:03:01;;;;;;;5.57;3.22;;;;;;;;;;5072837;28;20429;-47
2023/02/05 12:05:36;;;;;;;7.60;4.68;;;;;;;;;;5073547;28;20587;-47
2023/02/05 12:08:02;;;;;;;7.47;4.00;;;;;;;;;;5073745;28;20227;-45
2023/02/05 12:10:36;;;;;;;6.90;3.90;;;;;;;;;;5072904;28;20450;-47
2023/02/05 12:13:07;;;;;;;3.53;3.10;;;;;;;;;;5073747;28;20396;-44
2023/02/05 12:15:46;;;;;;;4.47;3.17;;;;;;;;;;5073622;28;20463;-45
2023/02/05 12:18:31;;;;;;;5.97;2.90;;;;;;;;;;5073472;28;20186;-47
2023/02/05 12:21:15;;;;;;;4.60;3.10;;;;;;;;;;5072637;28;20197;-46
2023/02/05 12:24:07;;;;;;;4.87;2.93;;;;;;;;;;5073434;28;20457;-45
2023/02/05 12:26:36;;;;;;;8.43;3.43;;;;;;;;;;5069644;28;20424;-45
2023/02/05 12:29:01;;;;;;;3.90;3.27;;;;;;;;;;5073303;28;20414;-45
2023/02/05 12:31:30;;;;;;;3.63;3.30;;;;;;;;;;5072558;28;20773;-47
2023/02/05 12:34:15;;;;;;;7.67;4.67;;;;;;;;;;5073269;28;20486;-46
2023/02/05 12:36:57;;;;;;;9.50;4.50;;;;;;;;;;5073616;28;20407;-46
2023/02/05 12:39:49;;;;;;;4.57;3.20;;;;;;;;;;5072630;28;20166;-47
2023/02/05 12:45:02;;;;;;;4.45;3.58;;;;;;;;;;5681045;22;20706;-46
2023/02/05 12:47:31;;;;;;;5.55;4.00;;;;;;;;;;5072815;28;20186;-44
2023/02/05 12:50:23;;;;;;;7.40;4.45;;;;;;;;;;5073083;28;20193;-43
2023/02/05 12:52:56;;;;;;;11.57;3.90;;;;;;;;;;5057237;28;20628;-43
2023/02/05 12:55:31;;;;;;;4.95;4.18;;;;;;;;;;5058256;28;20214;-42
2023/02/05 12:58:00;;;;;;;5.60;3.90;;;;;;;;;;5052583;28;20515;-44
2023/02/05 13:00:28;;;;;;;10.82;4.63;;;;;;;;;;5050262;28;20175;-43
2023/02/05 13:03:07;;;;;;;6.90;3.90;;;;;;;;;;5051643;28;20170;-45
2023/02/05 13:05:39;;;;;;;6.15;4.80;;;;;;;;;;5053311;28;20421;-46
2023/02/05 13:08:15;;;;;;;16.17;3.67;;;;;;;;;;5054147;28;20272;-47
2023/02/05 13:10:53;;;;;;;4.80;3.95;;;;;;;;;;5051249;28;20171;-47
2023/02/05 13:13:26;;;;;;;11.43;3.93;;;;;;;;;;5052478;28;20172;-47
2023/02/05 13:16:14;;;;;;;7.10;3.92;;;;;;;;;;5051284;28;20822;-47
2023/02/05 13:18:46;;;;;;;5.13;3.10;;;;;;;;;;5052542;28;20163;-47
2023/02/05 13:29:50;;;;;;;4.88;2.55;;;;;;;;;;5052139;28;20632;-47
2023/02/05 13:32:19;;;;;;;3.55;2.90;;;;;;;;;;5052000;28;20189;-47
2023/02/05 13:34:45;;;;;;;3.00;2.60;;;;;;;;;;5051445;28;20268;-47
2023/02/05 13:37:11;;;;;;;5.33;3.60;;;;;;;;;;5052241;28;20398;-47
2023/02/05 13:39:40;;;;;;;4.60;3.40;;;;;;;;;;5043556;28;20445;-47
2023/02/05 13:42:25;;;;;;;7.90;4.43;;;;;;;;;;5032197;28;20398;-47
2023/02/05 13:44:51;;;;;;;6.70;4.20;;;;;;;;;;5029680;28;20410;-47
2023/02/05 13:47:29;;;;;;;5.33;4.80;;;;;;;;;;5032315;28;20183;-47
2023/02/05 13:50:06;;;;;;;7.97;5.70;;;;;;;;;;5032017;28;20760;-47
2023/02/05 13:52:31;;;;;;;7.47;5.80;;;;;;;;;;5032100;28;20185;-46
2023/02/05 13:55:10;;;;;;;7.00;5.40;;;;;;;;;;5031279;28;20293;-47
2023/02/05 13:57:36;;;;;;;11.40;4.87;;;;;;;;;;5033328;28;20414;-46
2023/02/05 14:00:03;;;;;;;6.13;4.57;;;;;;;;;;5047510;28;20402;-46
2023/02/05 14:02:35;;;;;;;8.38;4.93;;;;;;;;;;5051394;28;20354;-47
2023/02/05 14:05:02;;;;;;;9.23;5.10;;;;;;;;;;5050494;28;20244;-46
2023/02/05 14:07:33;;;;;;;15.82;6.00;;;;;;;;;;5049989;28;20169;-47
2023/02/05 14:10:01;;;;;;;7.75;5.20;;;;;;;;;;5049647;28;20258;-47
2023/02/05 14:12:29;;;;;;;7.90;5.93;;;;;;;;;;5049809;28;20549;-47
2023/02/05 14:15:17;;;;;;;7.07;5.00;;;;;;;;;;5049078;28;20203;-47
2023/02/05 14:17:43;;;;;;;7.13;4.72;;;;;;;;;;5049759;28;20209;-47
2023/02/05 14:20:24;;;;;;;9.40;4.80;;;;;;;;;;5049688;28;20167;-47
2023/02/05 14:22:59;;;;;;;9.57;4.78;;;;;;;;;;5049575;28;20451;-47
2023/02/05 14:25:35;;;;;;;9.68;5.25;;;;;;;;;;5049095;28;20673;-47
2023/02/05 14:28:16;;;;;;;11.63;4.95;;;;;;;;;;5050933;28;20167;-47
2023/02/05 14:30:45;;;;;;;9.50;4.70;;;;;;;;;;5051616;28;20199;-47
2023/02/05 14:33:30;;;;;;;10.70;4.80;;;;;;;;;;5051518;28;20256;-47
2023/02/05 14:36:19;;;;;;;19.35;4.93;;;;;;;;;;5050451;28;20278;-47
2023/02/05 14:39:24;;;;;;;14.20;5.30;;;;;;;;;;5048875;28;20166;-47
2023/02/05 14:41:53;;;;;;;10.85;4.20;;;;;;;;;;5007761;28;20267;-46
2023/02/05 14:44:21;;;;;;;6.83;3.90;;;;;;;;;;5007616;28;20188;-47
2023/02/05 14:47:05;;;;;;;5.60;4.05;;;;;;;;;;5020539;28;20426;-47
2023/02/05 14:49:35;;;;;;;12.98;6.05;;;;;;;;;;5031311;28;20515;-47
2023/02/05 14:52:03;;;;;;;8.77;4.22;;;;;;;;;;5031172;28;20216;-47
2023/02/05 14:54:43;;;;;;;4.90;3.85;;;;;;;;;;5030238;28;20296;-47